Kodiak Airport Airport (ODK)

 

Airport Diagram
Current Weather/Forecast (VFR Conditions)
METAR PADQ 100553Z 32006KT 10SM OVC050 17/08 A2977 RMK SLP081 T01720083 10217 20172 53006 $ VIA AUTODIAL
TAF PADQ 100536Z 1006/1106 33010KT P6SM BKN050 FM102100 06006KT P6SM SCT035

All Charts

Inbound Traffic (Arrivals)

No inbound traffic.


Outbound Traffic (Departures)

No outbound traffic.